createdAt,value
2017-07-10T00:00:20.017Z,26.39
2017-07-10T00:01:00.590Z,26.36
2017-07-10T00:01:41.066Z,26.36
2017-07-10T00:02:21.528Z,26.29
2017-07-10T00:03:02.096Z,26.21
2017-07-10T00:03:42.578Z,26.28
2017-07-10T00:04:23.127Z,26.2
2017-07-10T00:05:03.623Z,26.26
2017-07-10T00:05:44.133Z,26.33
2017-07-10T00:06:24.666Z,26.32
2017-07-10T00:07:05.240Z,26.33
2017-07-10T00:07:45.682Z,26.3
2017-07-10T00:08:26.186Z,26.3
2017-07-10T00:09:06.931Z,26.35
2017-07-10T00:09:47.251Z,26.33
2017-07-10T00:10:27.762Z,26.25
2017-07-10T00:11:08.228Z,26.25
2017-07-10T00:11:48.732Z,26.32
2017-07-10T00:12:29.308Z,26.26
2017-07-10T00:13:09.955Z,26.23
2017-07-10T00:15:08.904Z,26.26
2017-07-10T00:15:49.278Z,26.09
2017-07-10T00:16:29.768Z,26.17
2017-07-10T00:18:28.991Z,26.13
2017-07-10T00:19:09.635Z,26.13
2017-07-10T00:19:50.358Z,26.06
2017-07-10T00:20:31.006Z,26.12
2017-07-10T00:21:11.399Z,26.12
2017-07-10T00:21:51.958Z,26.05
2017-07-10T00:22:32.502Z,26.12
2017-07-10T00:23:13.068Z,26.13
2017-07-10T00:23:53.422Z,26.13
2017-07-10T00:24:34.138Z,26.15
2017-07-10T00:25:14.711Z,26.12
2017-07-10T00:25:55.206Z,26.12
2017-07-10T00:26:35.681Z,26.02
2017-07-10T00:27:16.413Z,25.99
2017-07-10T00:27:56.772Z,26.01
2017-07-10T00:28:37.360Z,26.02
2017-07-10T00:29:18.161Z,26.05
2017-07-10T00:29:58.702Z,26.05
2017-07-10T00:30:39.007Z,26.02
2017-07-10T00:31:19.815Z,26.1
2017-07-10T00:32:00.286Z,26.13
2017-07-10T00:32:41.018Z,26.09
2017-07-10T00:33:21.814Z,26.05
2017-07-10T00:34:02.154Z,25.94
2017-07-10T00:34:42.718Z,26.02
2017-07-10T00:35:23.492Z,26.06
2017-07-10T00:36:04.251Z,26.01
2017-07-10T00:36:44.800Z,26.12
2017-07-10T00:37:25.416Z,26.05
2017-07-10T00:38:06.089Z,26.01
2017-07-10T00:38:46.705Z,25.97
2017-07-10T00:39:27.220Z,25.98
2017-07-10T00:40:07.660Z,25.99
2017-07-10T00:40:48.150Z,25.97
2017-07-10T00:41:28.746Z,25.98
2017-07-10T00:42:09.169Z,25.99
2017-07-10T00:42:49.846Z,26.09
2017-07-10T00:43:30.672Z,26.07
2017-07-10T00:44:11.375Z,26.1
2017-07-10T00:44:52.043Z,26.09
2017-07-10T00:45:32.824Z,26.01
2017-07-10T00:46:13.526Z,26.05
2017-07-10T00:46:54.044Z,26.02
2017-07-10T00:47:34.505Z,26.01
2017-07-10T00:48:14.975Z,25.99
2017-07-10T00:48:55.618Z,26.05
2017-07-10T00:49:36.342Z,25.95
2017-07-10T00:50:16.798Z,26.02
2017-07-10T00:50:57.298Z,26.01
2017-07-10T00:51:37.770Z,25.95
2017-07-10T00:52:18.277Z,25.98
2017-07-10T00:52:58.786Z,25.91
2017-07-10T00:53:39.275Z,25.99
2017-07-10T00:54:19.834Z,25.92
2017-07-10T00:55:00.331Z,26.01
2017-07-10T00:55:41.026Z,25.99
2017-07-10T00:56:21.554Z,25.9
2017-07-10T00:57:02.039Z,25.99
2017-07-10T00:57:42.896Z,25.85
2017-07-10T00:58:23.595Z,25.92
2017-07-10T00:59:04.043Z,25.99
2017-07-10T00:59:44.791Z,25.98
2017-07-10T01:00:26.411Z,26.02
2017-07-10T01:01:06.936Z,26.02
2017-07-10T01:01:47.434Z,25.95
2017-07-10T01:02:27.968Z,25.98
2017-07-10T01:03:08.501Z,25.98
2017-07-10T01:03:49.247Z,26.05
2017-07-10T01:04:29.792Z,26.02
2017-07-10T01:05:10.390Z,25.92
2017-07-10T01:05:51.248Z,25.92
2017-07-10T01:06:31.756Z,25.91
2017-07-10T01:07:12.218Z,26.01
2017-07-10T01:07:52.709Z,25.9
2017-07-10T01:08:33.373Z,25.99
2017-07-10T01:09:13.976Z,26.02
2017-07-10T01:09:54.658Z,25.88
2017-07-10T01:10:34.863Z,25.91
2017-07-10T01:11:16.661Z,25.97
2017-07-10T01:11:56.543Z,26.01
2017-07-10T01:12:37.057Z,26.02
2017-07-10T01:13:17.548Z,25.98
2017-07-10T01:13:58.081Z,25.9
2017-07-10T01:14:38.575Z,26.01
2017-07-10T01:15:19.054Z,25.98
2017-07-10T01:15:59.658Z,26.07
2017-07-10T01:16:40.129Z,26.05
2017-07-10T01:17:20.928Z,26.01
2017-07-10T01:18:01.055Z,26.01
2017-07-10T01:18:41.594Z,26.06
2017-07-10T01:19:22.153Z,26.02
2017-07-10T01:20:02.557Z,26.05
2017-07-10T01:20:43.173Z,26.06
2017-07-10T01:21:23.882Z,25.99
2017-07-10T01:22:04.145Z,25.97
2017-07-10T01:22:44.607Z,26.01
2017-07-10T01:23:25.113Z,25.98
2017-07-10T01:24:05.729Z,25.99
2017-07-10T01:24:46.244Z,25.91
2017-07-10T01:25:26.788Z,25.95
2017-07-10T01:26:07.250Z,25.94
2017-07-10T01:26:47.849Z,26.02
2017-07-10T01:27:28.253Z,25.99
2017-07-10T01:28:08.719Z,25.98
2017-07-10T01:28:49.260Z,26.06
2017-07-10T01:29:29.853Z,25.92
2017-07-10T01:30:10.223Z,25.97
2017-07-10T01:30:51.015Z,25.98
2017-07-10T01:31:31.468Z,25.92
2017-07-10T01:32:12.007Z,25.95
2017-07-10T01:32:52.529Z,25.94
2017-07-10T01:33:33.067Z,26.01
2017-07-10T01:34:13.808Z,25.92
2017-07-10T01:34:54.212Z,25.9
2017-07-10T01:35:34.790Z,25.94
2017-07-10T01:36:15.330Z,25.98
2017-07-10T01:36:55.782Z,25.94
2017-07-10T01:37:36.658Z,26.02
2017-07-10T01:38:17.037Z,25.95
2017-07-10T01:38:57.588Z,26.07
2017-07-10T01:39:38.221Z,25.87
2017-07-10T01:40:18.702Z,25.92
2017-07-10T01:40:59.366Z,26.02
2017-07-10T01:41:39.717Z,26.01
2017-07-10T01:42:20.221Z,26.01
2017-07-10T01:43:00.661Z,26.01
2017-07-10T01:43:41.172Z,25.97
2017-07-10T01:44:21.836Z,25.99
2017-07-10T01:45:02.346Z,26.12
2017-07-10T01:45:42.778Z,25.97
2017-07-10T01:46:23.465Z,25.92
2017-07-10T01:47:03.984Z,25.9
2017-07-10T01:47:44.504Z,25.98
2017-07-10T01:48:25.086Z,25.94
2017-07-10T01:49:05.524Z,25.95
2017-07-10T01:49:46.061Z,25.94
2017-07-10T01:50:26.520Z,25.94
2017-07-10T01:51:07.070Z,25.85
2017-07-10T01:51:47.466Z,25.92
2017-07-10T01:52:28.119Z,25.82
2017-07-10T01:53:08.696Z,25.77
2017-07-10T01:53:49.171Z,25.64
2017-07-10T01:54:29.813Z,25.58
2017-07-10T01:55:10.241Z,25.52
2017-07-10T01:55:50.756Z,25.6
2017-07-10T01:56:31.299Z,25.62
2017-07-10T01:57:12.031Z,25.67
2017-07-10T01:57:52.423Z,25.64
2017-07-10T01:58:33.708Z,25.61
2017-07-10T01:59:14.282Z,25.58
2017-07-10T01:59:54.965Z,25.57
2017-07-10T02:00:35.300Z,25.61
2017-07-10T02:01:15.907Z,25.65
2017-07-10T02:01:56.826Z,25.7
2017-07-10T02:02:37.301Z,25.64
2017-07-10T02:03:17.823Z,25.65
2017-07-10T02:03:58.289Z,25.67
2017-07-10T02:04:38.910Z,25.67
2017-07-10T02:05:19.452Z,25.51
2017-07-10T02:06:00.128Z,25.58
2017-07-10T02:06:40.524Z,25.43
2017-07-10T02:07:21.216Z,25.54
2017-07-10T02:08:01.770Z,25.62
2017-07-10T02:08:42.191Z,25.67
2017-07-10T02:09:22.714Z,25.67
2017-07-10T02:10:03.358Z,25.67
2017-07-10T02:10:44.987Z,25.55
2017-07-10T02:11:25.470Z,25.6
2017-07-10T02:12:05.936Z,25.6
2017-07-10T02:12:46.606Z,25.57
2017-07-10T02:13:27.176Z,25.61
2017-07-10T02:14:07.674Z,25.69
2017-07-10T02:14:48.215Z,25.7
2017-07-10T02:15:29.394Z,25.67
2017-07-10T02:16:10.373Z,25.69
2017-07-10T02:16:50.930Z,25.67
2017-07-10T02:17:31.704Z,25.62
2017-07-10T02:18:12.170Z,25.67
2017-07-10T02:18:52.864Z,25.65
2017-07-10T02:19:33.346Z,25.72
2017-07-10T02:20:14.023Z,25.69
2017-07-10T02:20:54.518Z,25.82
2017-07-10T02:21:35.642Z,25.73
2017-07-10T02:22:15.720Z,25.77
2017-07-10T02:22:56.187Z,25.9
2017-07-10T02:23:36.725Z,25.77
2017-07-10T02:24:17.168Z,25.7
2017-07-10T02:24:57.670Z,25.61
2017-07-10T02:25:38.225Z,25.67
2017-07-10T02:26:18.861Z,25.64
2017-07-10T02:26:59.602Z,25.61
2017-07-10T02:27:39.876Z,25.5
2017-07-10T02:28:20.418Z,25.6
2017-07-10T02:29:00.890Z,25.51
2017-07-10T02:29:42.375Z,25.46
2017-07-10T02:30:23.041Z,25.45
2017-07-10T02:31:03.587Z,25.45
2017-07-10T02:31:44.060Z,25.42
2017-07-10T02:32:24.559Z,25.38
2017-07-10T02:33:05.293Z,25.3
2017-07-10T02:33:45.936Z,25.4
2017-07-10T02:34:26.386Z,25.35
2017-07-10T02:35:06.862Z,25.36
2017-07-10T02:35:47.618Z,25.39
2017-07-10T02:36:27.935Z,25.35
2017-07-10T02:37:08.423Z,25.43
2017-07-10T02:37:49.069Z,25.45
2017-07-10T02:38:29.474Z,25.57
2017-07-10T02:39:09.990Z,25.55
2017-07-10T02:39:50.592Z,25.52
2017-07-10T02:40:31.076Z,25.55
2017-07-10T02:41:11.589Z,25.58
2017-07-10T02:41:52.015Z,25.52
2017-07-10T02:42:32.584Z,25.54
2017-07-10T02:43:13.174Z,25.57
2017-07-10T02:43:53.718Z,25.46
2017-07-10T02:44:34.317Z,25.58
2017-07-10T02:45:14.868Z,25.47
2017-07-10T02:45:55.393Z,25.4
2017-07-10T02:46:36.251Z,25.46
2017-07-10T02:47:16.683Z,25.45
2017-07-10T02:47:57.131Z,25.47
2017-07-10T02:48:37.635Z,25.52
2017-07-10T02:49:18.118Z,25.51
2017-07-10T02:49:58.637Z,25.58
2017-07-10T02:50:39.114Z,25.46
2017-07-10T02:51:19.644Z,25.38
2017-07-10T02:52:00.154Z,25.33
2017-07-10T02:52:40.720Z,25.35
2017-07-10T02:53:21.208Z,25.43
2017-07-10T02:54:01.796Z,25.38
2017-07-10T02:54:42.342Z,25.38
2017-07-10T02:55:22.868Z,25.38
2017-07-10T02:56:03.418Z,25.43
2017-07-10T02:56:43.903Z,25.32
2017-07-10T02:57:24.410Z,25.33
2017-07-10T02:58:04.888Z,25.32
2017-07-10T02:58:45.446Z,25.36
2017-07-10T02:59:25.909Z,25.32
2017-07-10T03:00:06.543Z,25.21
2017-07-10T03:00:47.217Z,25.27
2017-07-10T03:01:27.743Z,25.23
2017-07-10T03:02:08.756Z,25.24
2017-07-10T03:02:49.154Z,25.14
2017-07-10T03:03:29.442Z,25.24
2017-07-10T03:04:09.967Z,25.21
2017-07-10T03:04:51.021Z,25.25
2017-07-10T03:05:31.789Z,25.25
2017-07-10T03:06:12.426Z,25.15
2017-07-10T03:06:53.079Z,25.27
2017-07-10T03:07:33.882Z,25.14
2017-07-10T03:08:14.879Z,25.14
2017-07-10T03:08:55.303Z,25.09
2017-07-10T03:09:35.858Z,24.96
2017-07-10T03:10:16.419Z,24.88
2017-07-10T03:10:57.140Z,24.93
2017-07-10T03:11:37.900Z,24.96
2017-07-10T03:12:18.633Z,24.88
2017-07-10T03:12:59.171Z,24.9
2017-07-10T03:13:39.776Z,24.95
2017-07-10T03:14:20.310Z,24.93
2017-07-10T03:15:00.813Z,24.96
2017-07-10T03:15:41.405Z,24.95
2017-07-10T03:16:22.331Z,24.9
2017-07-10T03:17:02.960Z,24.91
2017-07-10T03:17:43.668Z,24.83
2017-07-10T03:18:24.362Z,24.95
2017-07-10T03:19:04.982Z,24.93
2017-07-10T03:19:45.805Z,24.78
2017-07-10T03:20:26.226Z,24.77
2017-07-10T03:21:06.864Z,24.81
2017-07-10T03:21:47.393Z,24.76
2017-07-10T03:22:28.052Z,24.76
2017-07-10T03:23:09.305Z,24.8
2017-07-10T03:23:50.260Z,24.77
2017-07-10T03:24:30.909Z,24.8
2017-07-10T03:25:11.546Z,24.8
2017-07-10T03:25:52.137Z,24.77
2017-07-10T03:26:33.189Z,24.78
2017-07-10T03:27:13.817Z,24.81
2017-07-10T03:27:54.220Z,24.78
2017-07-10T03:28:34.785Z,24.77
2017-07-10T03:29:15.592Z,24.87
2017-07-10T03:29:56.382Z,24.85
2017-07-10T03:30:36.980Z,24.85
2017-07-10T03:31:18.117Z,24.9
2017-07-10T03:31:58.663Z,24.9
2017-07-10T03:32:39.378Z,24.87
2017-07-10T03:33:19.771Z,24.98
2017-07-10T03:34:00.366Z,24.91
2017-07-10T03:34:40.787Z,24.87
2017-07-10T03:35:21.324Z,24.88
2017-07-10T03:36:01.817Z,24.87
2017-07-10T03:36:42.301Z,24.83
2017-07-10T03:37:22.858Z,24.91
2017-07-10T03:38:03.387Z,24.91
2017-07-10T03:38:43.853Z,24.9
2017-07-10T03:39:24.550Z,24.87
2017-07-10T03:40:05.107Z,24.85
2017-07-10T03:40:45.603Z,24.98
2017-07-10T03:41:26.179Z,24.81
2017-07-10T03:42:07.037Z,24.69
2017-07-10T03:42:47.398Z,24.65
2017-07-10T03:43:27.921Z,24.65
2017-07-10T03:44:08.982Z,24.68
2017-07-10T03:44:49.370Z,24.55
2017-07-10T03:45:30.363Z,24.53
2017-07-10T03:46:10.646Z,24.52
2017-07-10T03:46:51.292Z,24.55
2017-07-10T03:47:32.015Z,24.57
2017-07-10T03:48:12.435Z,24.53
2017-07-10T03:48:53.414Z,24.65
2017-07-10T03:49:33.769Z,24.67
2017-07-10T03:50:14.318Z,24.65
2017-07-10T03:50:55.000Z,24.69
2017-07-10T03:51:35.725Z,24.73
2017-07-10T03:52:16.751Z,24.78
2017-07-10T03:52:57.267Z,24.83
2017-07-10T03:53:37.942Z,24.83
2017-07-10T03:54:18.473Z,24.9
2017-07-10T03:54:59.170Z,24.8
2017-07-10T03:55:39.586Z,24.83
2017-07-10T03:56:20.399Z,24.95
2017-07-10T03:57:01.015Z,24.98
2017-07-10T03:57:41.379Z,24.81
2017-07-10T03:58:21.936Z,24.88
2017-07-10T03:59:02.475Z,24.98
2017-07-10T03:59:43.246Z,24.88
2017-07-10T04:00:23.703Z,24.99
2017-07-10T04:01:04.393Z,24.98
2017-07-10T04:01:45.270Z,25.03
2017-07-10T04:02:25.705Z,25.08
2017-07-10T04:03:06.555Z,25.08
2017-07-10T04:03:47.417Z,25.08
2017-07-10T04:04:28.028Z,25.05
2017-07-10T04:05:08.411Z,25.05
2017-07-10T04:05:49.191Z,25
2017-07-10T04:06:30.035Z,24.99
2017-07-10T04:07:11.112Z,24.96
2017-07-10T04:07:51.350Z,24.83
2017-07-10T04:08:31.865Z,24.83
2017-07-10T04:09:12.379Z,24.77
2017-07-10T04:09:53.108Z,24.78
2017-07-10T04:10:33.663Z,24.78
2017-07-10T04:11:14.209Z,24.71
2017-07-10T04:11:54.780Z,24.76
2017-07-10T04:12:35.468Z,24.83
2017-07-10T04:13:15.848Z,24.87
2017-07-10T04:13:56.493Z,24.93
2017-07-10T04:14:36.863Z,24.9
2017-07-10T04:15:17.504Z,24.93
2017-07-10T04:15:57.918Z,24.9
2017-07-10T04:16:38.718Z,24.95
2017-07-10T04:17:19.623Z,24.83
2017-07-10T04:18:00.198Z,24.87
2017-07-10T04:18:40.764Z,24.96
2017-07-10T04:19:21.248Z,24.91
2017-07-10T04:20:01.782Z,24.76
2017-07-10T04:20:42.320Z,24.78
2017-07-10T04:21:22.794Z,24.8
2017-07-10T04:22:03.287Z,24.83
2017-07-10T04:22:43.837Z,24.87
2017-07-10T04:23:24.342Z,24.87
2017-07-10T04:24:04.882Z,24.88
2017-07-10T04:24:45.472Z,24.87
2017-07-10T04:25:25.952Z,24.9
2017-07-10T04:26:06.581Z,24.77
2017-07-10T04:26:47.311Z,24.76
2017-07-10T04:27:27.766Z,24.69
2017-07-10T04:28:08.292Z,24.65
2017-07-10T04:28:48.817Z,24.65
2017-07-10T04:29:29.348Z,24.78
2017-07-10T04:30:09.847Z,24.81
2017-07-10T04:30:50.319Z,24.76
2017-07-10T04:31:30.916Z,24.81
2017-07-10T04:32:11.469Z,24.78
2017-07-10T04:32:51.849Z,24.8
2017-07-10T04:33:32.391Z,24.83
2017-07-10T04:34:12.949Z,24.83
2017-07-10T04:34:53.363Z,24.91
2017-07-10T04:35:33.864Z,24.95
2017-07-10T04:36:14.412Z,24.9
2017-07-10T04:36:55.045Z,24.93
2017-07-10T04:37:35.660Z,24.91
2017-07-10T04:38:16.243Z,24.85
2017-07-10T04:38:56.740Z,24.87
2017-07-10T04:39:37.250Z,24.84
2017-07-10T04:40:17.785Z,24.95
2017-07-10T04:40:58.259Z,25.02
2017-07-10T04:41:38.724Z,24.88
2017-07-10T04:42:19.232Z,24.99
2017-07-10T04:42:59.738Z,24.96
2017-07-10T04:43:40.205Z,24.99
2017-07-10T04:44:20.703Z,24.88
2017-07-10T04:45:01.227Z,24.85
2017-07-10T04:45:41.765Z,24.95
2017-07-10T04:46:22.396Z,24.88
2017-07-10T04:47:02.980Z,24.9
2017-07-10T04:47:43.482Z,24.88
2017-07-10T04:48:23.997Z,24.9
2017-07-10T04:49:04.693Z,24.9
2017-07-10T04:49:45.155Z,24.88
2017-07-10T04:50:25.751Z,24.93
2017-07-10T04:51:06.236Z,24.95
2017-07-10T04:51:46.751Z,24.99
2017-07-10T04:52:27.321Z,24.99
2017-07-10T04:53:07.734Z,24.91
2017-07-10T04:53:48.269Z,24.9
2017-07-10T04:54:28.790Z,24.9
2017-07-10T04:55:09.358Z,24.9
2017-07-10T04:55:49.879Z,24.8
2017-07-10T04:56:30.380Z,24.81
2017-07-10T04:57:10.995Z,24.83
2017-07-10T04:57:51.502Z,24.87
2017-07-10T04:58:32.023Z,24.81
2017-07-10T04:59:12.579Z,24.8
2017-07-10T04:59:53.265Z,24.68
2017-07-10T05:00:33.713Z,24.64
2017-07-10T05:01:14.194Z,24.69
2017-07-10T05:01:54.694Z,24.65
2017-07-10T05:02:35.188Z,24.67
2017-07-10T05:03:15.669Z,24.64
2017-07-10T05:03:56.192Z,24.69
2017-07-10T05:04:36.785Z,24.76
2017-07-10T05:05:17.228Z,24.85
2017-07-10T05:05:57.759Z,24.81
2017-07-10T05:06:38.335Z,24.84
2017-07-10T05:07:18.743Z,24.88
2017-07-10T05:07:59.768Z,24.81
2017-07-10T05:08:39.931Z,24.88
2017-07-10T05:09:20.422Z,24.99
2017-07-10T05:10:00.875Z,24.9
2017-07-10T05:10:42.357Z,24.93
2017-07-10T05:11:22.939Z,24.88
2017-07-10T05:12:03.563Z,24.93
2017-07-10T05:12:44.005Z,24.85
2017-07-10T05:13:24.579Z,24.81
2017-07-10T05:14:08.032Z,24.8
2017-07-10T05:14:49.342Z,24.71
2017-07-10T05:15:30.729Z,24.67
2017-07-10T05:16:14.131Z,24.68
2017-07-10T05:16:54.838Z,24.6
2017-07-10T05:17:35.658Z,24.69
2017-07-10T05:18:16.339Z,24.8
2017-07-10T05:18:57.074Z,24.9
2017-07-10T05:20:55.423Z,25.08
2017-07-10T05:22:47.725Z,25.3
2017-07-10T05:23:28.604Z,25.25
2017-07-10T05:24:10.048Z,25.21
2017-07-10T05:24:51.684Z,25.3
2017-07-10T05:25:32.508Z,25.33
2017-07-10T05:26:15.235Z,25.33
2017-07-10T05:26:55.825Z,25.39
2017-07-10T05:27:36.484Z,25.45
2017-07-10T05:28:16.864Z,25.46
2017-07-10T05:28:57.377Z,25.54
2017-07-10T05:29:37.974Z,25.33
2017-07-10T05:30:18.468Z,25.43
2017-07-10T05:30:59.541Z,25.38
2017-07-10T05:31:39.541Z,25.21
2017-07-10T05:32:20.140Z,25.32
2017-07-10T05:33:00.753Z,25.18
2017-07-10T05:33:41.405Z,25.27
2017-07-10T05:34:22.091Z,25.36
2017-07-10T05:35:03.718Z,25.3
2017-07-10T05:35:50.258Z,25.33
2017-07-10T05:36:30.800Z,25.43
2017-07-10T05:37:11.456Z,25.4
2017-07-10T05:37:51.972Z,25.47
2017-07-10T05:38:32.476Z,25.46
2017-07-10T05:39:12.996Z,25.42
2017-07-10T05:39:53.518Z,25.58
2017-07-10T05:40:34.033Z,25.52
2017-07-10T05:41:14.568Z,25.39
2017-07-10T05:41:55.063Z,25.3
2017-07-10T05:42:35.586Z,25.33
2017-07-10T05:43:16.114Z,25.39
2017-07-10T05:43:56.636Z,25.36
2017-07-10T05:44:37.201Z,25.35
2017-07-10T05:45:17.656Z,25.36
2017-07-10T05:45:59.923Z,25.43
2017-07-10T05:46:40.399Z,25.47
2017-07-10T05:47:20.939Z,25.42
2017-07-10T05:48:01.442Z,25.35
2017-07-10T05:48:41.953Z,25.38
2017-07-10T05:49:22.483Z,25.38
2017-07-10T05:50:03.059Z,25.36
2017-07-10T05:50:43.531Z,25.32
2017-07-10T05:51:24.052Z,25.23
2017-07-10T05:52:04.577Z,25.27
2017-07-10T05:52:45.212Z,25.27
2017-07-10T05:53:25.775Z,25.27
2017-07-10T05:54:06.335Z,25.32
2017-07-10T05:54:46.800Z,25.32
2017-07-10T05:55:27.342Z,25.3
2017-07-10T05:56:07.832Z,25.3
2017-07-10T05:56:48.341Z,25.4
2017-07-10T05:57:28.917Z,25.42
2017-07-10T05:58:09.459Z,25.35
2017-07-10T05:58:49.946Z,25.32
2017-07-10T05:59:30.461Z,25.39
2017-07-10T06:00:10.979Z,25.45
2017-07-10T06:00:51.567Z,25.3
2017-07-10T06:01:32.084Z,25.25
2017-07-10T06:02:12.602Z,25.14
2017-07-10T06:02:53.111Z,25.2
2017-07-10T06:03:35.638Z,25.32
2017-07-10T06:04:16.278Z,25.38
2017-07-10T06:04:56.834Z,25.39
2017-07-10T06:05:37.419Z,25.33
2017-07-10T06:06:17.930Z,25.15
2017-07-10T06:06:58.462Z,25.3
2017-07-10T06:07:38.990Z,25.18
2017-07-10T06:08:19.530Z,25.18
2017-07-10T06:09:00.000Z,25.13
2017-07-10T06:09:40.507Z,25.32
2017-07-10T06:10:21.043Z,25.33
2017-07-10T06:11:01.572Z,25.21
2017-07-10T06:11:42.103Z,25.24
2017-07-10T06:12:22.620Z,25.43
2017-07-10T06:13:03.140Z,25.57
2017-07-10T06:13:43.675Z,25.33
2017-07-10T06:14:24.212Z,25.54
2017-07-10T06:15:04.739Z,25.57
2017-07-10T06:15:45.275Z,25.47
2017-07-10T06:16:25.764Z,25.47
2017-07-10T06:17:06.293Z,25.46
2017-07-10T06:17:46.850Z,25.36
2017-07-10T06:18:27.342Z,25.4
2017-07-10T06:19:07.919Z,25.62
2017-07-10T06:19:48.447Z,25.4
2017-07-10T06:20:29.125Z,25.45
2017-07-10T06:21:09.557Z,25.4
2017-07-10T06:21:50.091Z,25.5
2017-07-10T06:22:30.676Z,25.35
2017-07-10T06:23:11.165Z,25.24
2017-07-10T06:23:51.731Z,25.21
2017-07-10T06:24:32.237Z,25.35
2017-07-10T06:25:12.777Z,25.3
2017-07-10T06:25:53.275Z,25.39
2017-07-10T06:26:33.774Z,25.52
2017-07-10T06:27:15.101Z,25.5
2017-07-10T06:27:55.629Z,25.57
2017-07-10T06:28:36.171Z,25.54
2017-07-10T06:29:16.677Z,25.52
2017-07-10T06:29:57.227Z,25.61
2017-07-10T06:30:37.749Z,25.58
2017-07-10T06:31:18.262Z,25.43
2017-07-10T06:31:58.772Z,25.38
2017-07-10T06:32:39.281Z,25.35
2017-07-10T06:33:19.769Z,25.38
2017-07-10T06:34:00.300Z,25.33
2017-07-10T06:34:40.871Z,25.3
2017-07-10T06:35:21.355Z,25.32
2017-07-10T06:36:02.584Z,25.3
2017-07-10T06:36:42.356Z,25.23
2017-07-10T06:37:22.881Z,25.24
2017-07-10T06:38:03.437Z,25.18
2017-07-10T06:38:43.984Z,25.13
2017-07-10T06:39:24.520Z,25.13
2017-07-10T06:40:05.073Z,25.1
2017-07-10T06:40:45.577Z,25.08
2017-07-10T06:41:26.121Z,25
2017-07-10T06:42:06.598Z,25.05
2017-07-10T06:42:47.222Z,25.02
2017-07-10T06:43:27.787Z,24.99
2017-07-10T06:44:08.412Z,24.95
2017-07-10T06:44:48.924Z,24.96
2017-07-10T06:45:29.512Z,24.93
2017-07-10T06:46:09.894Z,24.81
2017-07-10T06:46:50.430Z,24.83
2017-07-10T06:47:31.005Z,24.88
2017-07-10T06:48:11.622Z,24.91
2017-07-10T06:48:52.182Z,24.93
2017-07-10T06:49:32.686Z,25.09
2017-07-10T06:50:13.174Z,25
2017-07-10T06:50:53.807Z,25.1
2017-07-10T06:51:34.432Z,25.3
2017-07-10T06:52:14.932Z,25.15
2017-07-10T06:52:55.478Z,25.32
2017-07-10T06:53:35.972Z,25.36
2017-07-10T06:54:16.497Z,25.33
2017-07-10T06:54:56.995Z,25.3
2017-07-10T06:55:37.559Z,25.43
2017-07-10T06:56:18.106Z,25.43
2017-07-10T06:56:58.619Z,25.55
2017-07-10T06:57:39.108Z,25.55
2017-07-10T06:58:19.646Z,25.7
2017-07-10T06:59:00.081Z,25.67
2017-07-10T06:59:40.629Z,25.62
2017-07-10T07:00:21.126Z,25.72
2017-07-10T07:01:01.703Z,25.73
2017-07-10T07:01:42.156Z,25.77
2017-07-10T07:02:22.693Z,25.83
2017-07-10T07:03:03.236Z,25.8
2017-07-10T07:03:43.757Z,25.91
2017-07-10T07:04:24.295Z,25.97
2017-07-10T07:06:22.503Z,25.7
2017-07-10T07:07:03.016Z,25.65
2017-07-10T07:07:43.576Z,25.57
2017-07-10T07:08:24.082Z,25.47
2017-07-10T07:09:04.632Z,25.5
2017-07-10T07:09:45.114Z,25.46
2017-07-10T07:10:25.606Z,25.54
2017-07-10T07:11:06.118Z,25.57
2017-07-10T07:11:46.668Z,25.64
2017-07-10T07:12:27.121Z,25.77
2017-07-10T07:13:07.615Z,25.95
2017-07-10T07:13:48.114Z,25.9
2017-07-10T07:14:28.627Z,25.92
2017-07-10T07:15:09.110Z,25.95
2017-07-10T07:15:49.648Z,25.99
2017-07-10T07:16:30.143Z,26.07
2017-07-10T07:17:10.619Z,26.05
2017-07-10T07:17:51.123Z,26.12
2017-07-10T07:18:31.593Z,26.07
2017-07-10T07:19:12.107Z,25.91
2017-07-10T07:19:52.610Z,26.06
2017-07-10T07:20:33.144Z,26.1
2017-07-10T07:21:13.719Z,25.95
2017-07-10T07:21:54.206Z,25.9
2017-07-10T07:22:34.683Z,25.92
2017-07-10T07:23:15.193Z,25.76
2017-07-10T07:23:55.706Z,25.57
2017-07-10T07:24:36.196Z,25.61
2017-07-10T07:25:16.682Z,25.76
2017-07-10T07:25:57.212Z,25.8
2017-07-10T07:26:37.706Z,25.76
2017-07-10T07:27:18.926Z,25.76
2017-07-10T07:27:59.427Z,25.77
2017-07-10T07:28:39.923Z,25.91
2017-07-10T07:29:20.561Z,25.99
2017-07-10T07:30:01.055Z,25.92
2017-07-10T07:30:41.633Z,25.91
2017-07-10T07:31:22.094Z,25.95
2017-07-10T07:32:02.673Z,25.91
2017-07-10T07:32:43.269Z,25.91
2017-07-10T07:33:23.742Z,25.8
2017-07-10T07:34:04.260Z,25.85
2017-07-10T07:34:44.782Z,25.88
2017-07-10T07:35:25.284Z,25.79
2017-07-10T07:36:05.776Z,25.79
2017-07-10T07:36:46.214Z,25.73
2017-07-10T07:37:26.775Z,25.69
2017-07-10T07:38:07.216Z,25.52
2017-07-10T07:38:47.746Z,25.64
2017-07-10T07:39:28.182Z,25.7
2017-07-10T07:40:08.746Z,25.67
2017-07-10T07:40:49.291Z,25.76
2017-07-10T07:41:29.830Z,25.83
2017-07-10T07:42:10.318Z,25.88
2017-07-10T07:42:50.852Z,25.99
2017-07-10T07:43:31.377Z,26.07
2017-07-10T07:44:11.915Z,26.07
2017-07-10T07:44:52.369Z,26.09
2017-07-10T07:45:32.883Z,26.06
2017-07-10T07:46:13.418Z,26.12
2017-07-10T07:46:54.071Z,26.02
2017-07-10T07:47:34.502Z,25.91
2017-07-10T07:48:14.997Z,25.95
2017-07-10T07:48:55.564Z,26.01
2017-07-10T07:49:36.075Z,25.98
2017-07-10T07:50:16.633Z,26.05
2017-07-10T07:50:57.148Z,26.07
2017-07-10T07:51:37.638Z,26.05
2017-07-10T07:52:18.179Z,26.01
2017-07-10T07:52:58.640Z,26.02
2017-07-10T07:53:39.214Z,25.99
2017-07-10T07:54:19.695Z,26.06
2017-07-10T07:55:00.222Z,25.98
2017-07-10T07:55:40.812Z,26.07
2017-07-10T07:56:21.303Z,25.88
2017-07-10T07:57:01.813Z,25.79
2017-07-10T07:57:42.317Z,25.92
2017-07-10T07:58:22.865Z,25.94
2017-07-10T07:59:03.475Z,25.77
2017-07-10T07:59:43.969Z,25.91
2017-07-10T08:00:24.478Z,25.92
2017-07-10T08:01:05.068Z,26.05
2017-07-10T08:01:45.588Z,25.92
2017-07-10T08:02:26.052Z,25.94
2017-07-10T08:03:06.627Z,25.9
2017-07-10T08:03:47.076Z,25.92
2017-07-10T08:04:27.635Z,25.9
2017-07-10T08:05:08.168Z,26.05
2017-07-10T08:05:48.671Z,25.9
2017-07-10T08:06:29.128Z,25.95
2017-07-10T08:07:09.626Z,25.95
2017-07-10T08:07:50.261Z,25.94
2017-07-10T08:08:30.731Z,25.98
2017-07-10T08:09:11.256Z,26.02
2017-07-10T08:09:51.769Z,26.05
2017-07-10T08:10:32.274Z,26.15
2017-07-10T08:11:12.820Z,26.12
2017-07-10T08:11:53.292Z,26.06
2017-07-10T08:12:33.837Z,26.2
2017-07-10T08:13:14.303Z,26.17
2017-07-10T08:13:54.845Z,26.07
2017-07-10T08:14:35.482Z,26.17
2017-07-10T08:15:15.949Z,26.15
2017-07-10T08:15:56.502Z,26.1
2017-07-10T08:16:36.942Z,26.17
2017-07-10T08:17:17.401Z,26.12
2017-07-10T08:17:57.928Z,25.98
2017-07-10T08:18:38.490Z,26.01
2017-07-10T08:19:18.968Z,26.01
2017-07-10T08:19:59.527Z,25.99
2017-07-10T08:20:40.127Z,26.02
2017-07-10T08:21:20.708Z,26.01
2017-07-10T08:22:01.290Z,25.91
2017-07-10T08:22:41.797Z,26.05
2017-07-10T08:23:22.303Z,25.83
2017-07-10T08:24:02.783Z,25.76
2017-07-10T08:24:43.270Z,25.92
2017-07-10T08:25:23.805Z,26.01
2017-07-10T08:26:04.321Z,25.98
2017-07-10T08:26:44.786Z,26.02
2017-07-10T08:27:25.278Z,25.91
2017-07-10T08:28:05.867Z,25.85
2017-07-10T08:28:46.486Z,25.79
2017-07-10T08:29:26.901Z,25.76
2017-07-10T08:30:07.454Z,25.73
2017-07-10T08:30:47.924Z,25.69
2017-07-10T08:31:28.455Z,25.73
2017-07-10T08:32:08.951Z,25.94
2017-07-10T08:32:49.406Z,25.88
2017-07-10T08:33:29.924Z,25.76
2017-07-10T08:34:10.451Z,25.62
2017-07-10T08:34:51.045Z,25.73
2017-07-10T08:35:31.671Z,25.82
2017-07-10T08:36:12.137Z,25.91
2017-07-10T08:36:52.642Z,25.94
2017-07-10T08:37:33.134Z,26.2
2017-07-10T08:38:13.641Z,26.18
2017-07-10T08:38:54.150Z,26.17
2017-07-10T08:39:34.633Z,26.21
2017-07-10T08:40:15.290Z,26.29
2017-07-10T08:40:55.788Z,26.36
2017-07-10T08:41:36.286Z,26.39
2017-07-10T08:42:16.862Z,26.55
2017-07-10T08:42:57.560Z,26.55
2017-07-10T08:43:37.988Z,26.73
2017-07-10T08:44:18.509Z,26.63
2017-07-10T08:44:59.000Z,26.76
2017-07-10T08:45:39.491Z,26.82
2017-07-10T08:46:19.989Z,26.95
2017-07-10T08:47:00.640Z,26.91
2017-07-10T08:47:41.093Z,27.02
2017-07-10T08:48:21.661Z,27.13
2017-07-10T08:49:02.158Z,27.25
2017-07-10T08:49:42.658Z,27.27
2017-07-10T08:50:23.187Z,27.09
2017-07-10T08:51:03.655Z,27.1